createdAt,value
2017-12-08T00:50:44.754Z,97.80
2017-12-08T00:53:12.966Z,96.60
2017-12-08T00:55:40.558Z,96.60
2017-12-08T00:58:08.873Z,96.90
2017-12-08T01:00:36.371Z,96.90
2017-12-08T01:03:03.775Z,96.70
2017-12-08T01:05:31.310Z,96.20
2017-12-08T01:07:58.792Z,96.30
2017-12-08T01:10:27.020Z,95.90
2017-12-08T01:12:54.500Z,95.90
2017-12-08T01:15:21.975Z,95.70
2017-12-08T01:17:49.470Z,95.70
2017-12-08T01:20:17.681Z,95.70
2017-12-08T01:22:45.155Z,95.60
2017-12-08T01:25:12.633Z,95.40
2017-12-08T01:27:40.207Z,95.30
2017-12-08T01:30:07.716Z,95.50
2017-12-08T01:32:35.945Z,95.10
2017-12-08T01:35:03.429Z,94.90
2017-12-08T01:37:31.746Z,95.00
2017-12-08T01:39:59.260Z,95.00
2017-12-08T01:42:26.717Z,94.80
2017-12-08T01:44:54.177Z,95.00
2017-12-08T01:47:21.651Z,95.20
2017-12-08T01:49:49.108Z,95.10
2017-12-08T01:52:16.614Z,95.20
2017-12-08T01:54:44.115Z,95.10
2017-12-08T01:57:11.599Z,94.90
2017-12-08T01:59:39.098Z,94.90
2017-12-08T02:02:06.569Z,95.00
2017-12-08T02:04:34.104Z,95.40
2017-12-08T02:07:02.358Z,95.20
2017-12-08T02:09:29.848Z,95.10
2017-12-08T02:11:58.136Z,95.10
2017-12-08T02:14:25.564Z,95.10
2017-12-08T02:16:53.063Z,95.00
2017-12-08T02:19:20.529Z,95.30
2017-12-08T02:21:47.993Z,95.10
2017-12-08T02:24:15.539Z,95.20
2017-12-08T02:26:43.028Z,95.20
2017-12-08T02:29:10.541Z,95.40
2017-12-08T02:31:37.981Z,95.40
2017-12-08T02:34:05.487Z,94.90
2017-12-08T02:36:32.946Z,95.10
2017-12-08T02:39:00.440Z,95.00
2017-12-08T02:41:27.979Z,95.40
2017-12-08T02:43:56.230Z,95.10
2017-12-08T02:46:23.716Z,95.10
2017-12-08T02:48:51.164Z,95.20
2017-12-08T02:51:18.673Z,95.10
2017-12-08T02:53:46.141Z,95.20
2017-12-08T02:56:13.537Z,95.40
2017-12-08T02:58:41.790Z,95.10
2017-12-08T03:01:09.235Z,94.80
2017-12-08T03:03:36.734Z,95.30
2017-12-08T03:06:04.182Z,95.20
2017-12-08T03:08:31.702Z,95.20
2017-12-08T03:10:59.163Z,95.30
2017-12-08T03:13:27.462Z,95.20
2017-12-08T03:15:54.877Z,95.20
2017-12-08T03:18:22.376Z,95.20
2017-12-08T03:20:49.828Z,95.20
2017-12-08T03:23:18.099Z,95.00
2017-12-08T03:25:45.685Z,95.00
2017-12-08T03:28:13.145Z,95.00
2017-12-08T03:30:41.452Z,95.00
2017-12-08T03:33:09.692Z,94.90
2017-12-08T03:35:37.164Z,94.60
2017-12-08T03:38:05.418Z,94.60
2017-12-08T03:40:32.915Z,94.50
2017-12-08T03:43:00.447Z,94.40
2017-12-08T03:45:27.930Z,94.40
2017-12-08T03:47:55.405Z,94.10
2017-12-08T03:50:23.667Z,93.80
2017-12-08T03:52:51.966Z,93.70
2017-12-08T03:55:19.396Z,93.60
2017-12-08T03:57:46.847Z,93.70
2017-12-08T04:00:14.351Z,93.80
2017-12-08T04:02:41.888Z,93.70
2017-12-08T04:05:09.352Z,93.20
2017-12-08T04:07:36.803Z,93.20
2017-12-08T04:10:04.340Z,93.30
2017-12-08T04:12:32.549Z,93.20
2017-12-08T04:15:00.065Z,93.20
2017-12-08T04:17:27.557Z,93.10
2017-12-08T04:19:55.031Z,92.60
2017-12-08T04:22:22.489Z,92.60
2017-12-08T04:24:49.947Z,92.30
2017-12-08T04:27:17.445Z,92.10
2017-12-08T04:29:44.947Z,92.40
2017-12-08T04:32:15.298Z,92.20
2017-12-08T04:34:42.767Z,92.20
2017-12-08T04:37:10.295Z,92.50
2017-12-08T04:39:37.810Z,92.50
2017-12-08T04:42:05.273Z,92.30
2017-12-08T04:44:33.066Z,92.40
2017-12-08T04:47:00.554Z,92.50
2017-12-08T04:49:27.997Z,92.70
2017-12-08T04:51:55.532Z,93.50
2017-12-08T04:54:23.014Z,92.60
2017-12-08T04:56:51.308Z,93.20
2017-12-08T04:59:18.823Z,93.10
2017-12-08T05:01:46.327Z,92.80
2017-12-08T05:04:13.807Z,92.90
2017-12-08T05:06:42.256Z,92.40
2017-12-08T05:09:09.707Z,92.40
2017-12-08T05:11:37.226Z,92.50
2017-12-08T05:14:05.435Z,91.90
2017-12-08T05:16:32.905Z,91.90
2017-12-08T05:19:00.356Z,91.60
2017-12-08T05:21:27.851Z,92.00
2017-12-08T05:23:55.302Z,91.70
2017-12-08T05:26:22.771Z,91.20
2017-12-08T05:28:50.217Z,91.30
2017-12-08T05:31:17.699Z,91.30
2017-12-08T05:33:45.170Z,91.20
2017-12-08T05:36:13.466Z,90.90
2017-12-08T05:38:41.679Z,91.10
2017-12-08T05:41:09.213Z,91.10
2017-12-08T05:43:36.648Z,91.20
2017-12-08T05:46:04.865Z,90.90
2017-12-08T05:48:32.325Z,90.60
2017-12-08T05:50:59.821Z,91.00
2017-12-08T05:53:27.281Z,90.80
2017-12-08T05:55:54.742Z,90.30
2017-12-08T05:58:22.205Z,90.20
2017-12-08T06:00:49.707Z,90.10
2017-12-08T06:03:17.165Z,89.50
2017-12-08T06:05:44.685Z,89.30
2017-12-08T06:08:12.908Z,89.50
2017-12-08T06:10:40.467Z,89.50
2017-12-08T06:13:07.928Z,88.80
2017-12-08T06:15:35.420Z,88.90
2017-12-08T06:18:03.728Z,89.20
2017-12-08T06:20:31.208Z,89.00
2017-12-08T06:22:58.697Z,88.10
2017-12-08T06:25:26.150Z,88.40
2017-12-08T06:27:53.675Z,88.40
2017-12-08T06:30:21.118Z,88.70
2017-12-08T06:32:48.663Z,88.60
2017-12-08T06:35:16.101Z,89.30
2017-12-08T06:37:43.548Z,90.00
2017-12-08T06:40:11.051Z,89.00
2017-12-08T06:42:38.546Z,89.10
2017-12-08T06:45:06.032Z,90.00
2017-12-08T06:47:33.527Z,90.00
2017-12-08T06:50:01.085Z,89.30
2017-12-08T06:52:28.570Z,90.00
2017-12-08T06:54:56.053Z,90.00
2017-12-08T06:57:23.515Z,90.00
2017-12-08T06:59:51.040Z,90.30
2017-12-08T07:02:18.587Z,90.00
2017-12-08T07:04:46.066Z,90.10
2017-12-08T07:07:13.536Z,90.00
2017-12-08T07:09:41.229Z,90.30
2017-12-08T07:12:09.452Z,90.50
2017-12-08T07:14:36.934Z,90.50
2017-12-08T07:17:04.490Z,90.30
2017-12-08T07:19:32.675Z,90.60
2017-12-08T07:22:00.148Z,90.60
2017-12-08T07:24:27.628Z,90.80
2017-12-08T07:26:55.862Z,91.00
2017-12-08T07:29:23.304Z,91.00
2017-12-08T07:31:50.798Z,90.90
2017-12-08T07:34:18.316Z,91.10
2017-12-08T07:36:45.747Z,91.20
2017-12-08T07:39:13.286Z,91.00
2017-12-08T07:41:40.781Z,90.90
2017-12-08T07:44:09.050Z,91.00
2017-12-08T07:46:36.576Z,90.90
2017-12-08T07:49:04.768Z,90.50
2017-12-08T07:51:32.266Z,90.40
2017-12-08T07:54:00.486Z,90.10
2017-12-08T07:56:27.959Z,90.10
2017-12-08T07:58:55.480Z,90.10
2017-12-08T08:01:23.044Z,90.00
2017-12-08T08:03:50.476Z,90.00
2017-12-08T08:06:17.991Z,88.80
2017-12-08T08:08:45.434Z,88.50
2017-12-08T08:11:12.880Z,88.90
2017-12-08T08:13:41.190Z,88.40
2017-12-08T08:16:09.470Z,88.70
2017-12-08T08:18:37.748Z,88.10
2017-12-08T08:21:05.243Z,88.00
2017-12-08T08:23:33.445Z,88.10
2017-12-08T08:26:00.900Z,88.10
2017-12-08T08:28:28.398Z,86.60
2017-12-08T08:30:55.896Z,86.20
2017-12-08T08:33:24.139Z,86.30
2017-12-08T08:35:52.422Z,86.10
2017-12-08T08:38:19.858Z,86.10
2017-12-08T08:40:47.375Z,85.60
2017-12-08T08:43:15.553Z,85.50
2017-12-08T08:45:43.097Z,85.40
2017-12-08T08:48:11.262Z,85.00
2017-12-08T08:50:38.742Z,85.50
2017-12-08T08:53:06.234Z,84.80
2017-12-08T08:55:33.694Z,84.30
2017-12-08T08:58:01.346Z,85.10
2017-12-08T09:00:28.834Z,83.80
2017-12-08T09:02:57.076Z,84.70
2017-12-08T09:05:25.358Z,84.10
2017-12-08T09:07:52.860Z,84.00
2017-12-08T09:10:20.378Z,83.80
2017-12-08T09:12:47.829Z,83.40
2017-12-08T09:15:16.090Z,84.30
2017-12-08T09:17:43.512Z,83.60
2017-12-08T09:20:11.084Z,82.90
2017-12-08T09:22:38.560Z,82.60
2017-12-08T09:25:06.095Z,82.70
2017-12-08T09:27:33.603Z,83.80
2017-12-08T09:30:01.064Z,84.70
2017-12-08T09:32:28.515Z,85.20
2017-12-08T09:34:56.097Z,83.30
2017-12-08T09:37:23.574Z,83.20
2017-12-08T09:39:51.087Z,83.40
2017-12-08T09:42:19.292Z,82.40
2017-12-08T09:44:46.760Z,81.70
2017-12-08T09:47:14.273Z,81.50
2017-12-08T09:49:42.481Z,85.50
2017-12-08T09:52:10.018Z,85.50
2017-12-08T09:54:37.531Z,86.20
2017-12-08T09:57:04.983Z,88.60
2017-12-08T09:59:32.468Z,90.10
2017-12-08T10:01:59.955Z,90.70
2017-12-08T10:04:27.422Z,90.90
2017-12-08T10:06:54.977Z,90.60
2017-12-08T10:09:23.214Z,91.40
2017-12-08T10:11:50.646Z,91.40
2017-12-08T10:14:18.178Z,91.90
2017-12-08T10:16:45.655Z,92.20
2017-12-08T10:19:13.048Z,92.10
2017-12-08T10:21:40.619Z,91.80
2017-12-08T10:24:08.052Z,92.00
2017-12-08T10:26:35.524Z,92.50
2017-12-08T10:29:03.009Z,92.80
2017-12-08T10:31:30.441Z,91.90
2017-12-08T10:33:57.953Z,91.80
2017-12-08T10:36:26.945Z,91.80
2017-12-08T10:38:54.409Z,91.80
2017-12-08T10:41:21.916Z,91.60
2017-12-08T10:43:50.175Z,91.60
2017-12-08T10:46:17.603Z,91.60
2017-12-08T10:48:45.064Z,91.80
2017-12-08T10:51:12.612Z,91.80
2017-12-08T10:53:40.107Z,91.80
2017-12-08T10:56:07.593Z,91.40
2017-12-08T10:58:35.014Z,90.70
2017-12-08T11:01:02.552Z,91.00
2017-12-08T11:03:30.798Z,91.20
2017-12-08T11:05:59.049Z,91.00
2017-12-08T11:08:26.557Z,91.00
2017-12-08T11:10:54.088Z,91.10
2017-12-08T11:13:21.664Z,90.80
2017-12-08T11:15:49.130Z,90.60
2017-12-08T11:18:17.136Z,90.80
2017-12-08T11:20:44.684Z,90.40
2017-12-08T11:23:12.973Z,90.40
2017-12-08T11:25:40.550Z,90.40
2017-12-08T11:28:08.823Z,90.10
2017-12-08T11:30:36.292Z,90.10
2017-12-08T11:33:03.856Z,90.30
2017-12-08T11:35:31.332Z,90.30
2017-12-08T11:37:58.809Z,90.40
2017-12-08T11:40:26.302Z,90.40
2017-12-08T11:42:53.816Z,90.20
2017-12-08T11:45:21.329Z,90.50
2017-12-08T11:47:49.568Z,91.00
2017-12-08T11:50:17.088Z,91.60
2017-12-08T11:52:44.566Z,91.90
2017-12-08T11:55:12.056Z,92.40
2017-12-08T11:57:39.508Z,92.70
2017-12-08T12:00:07.017Z,93.00
2017-12-08T12:02:34.488Z,93.50
2017-12-08T12:05:01.995Z,93.60
2017-12-08T12:07:30.222Z,93.80
2017-12-08T12:09:57.732Z,93.80
2017-12-08T12:12:25.186Z,93.90
2017-12-08T12:14:52.689Z,94.00
2017-12-08T12:17:20.163Z,93.90
2017-12-08T12:19:48.430Z,93.80
2017-12-08T12:22:15.868Z,93.80
2017-12-08T12:24:43.338Z,94.00
2017-12-08T12:27:10.839Z,94.10
2017-12-08T12:29:38.312Z,94.00
2017-12-08T12:32:06.637Z,93.90
2017-12-08T12:34:34.126Z,93.80
2017-12-08T12:37:01.643Z,94.00
2017-12-08T12:39:29.919Z,93.90
2017-12-08T12:41:58.137Z,94.20
2017-12-08T12:44:25.649Z,94.10
2017-12-08T12:46:53.929Z,94.50
2017-12-08T12:49:21.382Z,94.50
2017-12-08T12:51:48.924Z,94.40
2017-12-08T12:54:17.100Z,94.80
2017-12-08T12:56:44.594Z,95.10
2017-12-08T12:59:12.097Z,95.00
2017-12-08T13:01:39.602Z,95.00
2017-12-08T13:04:07.075Z,94.60
2017-12-08T13:06:34.605Z,94.80
2017-12-08T13:09:02.130Z,94.90
2017-12-08T13:11:29.629Z,94.50
2017-12-08T13:13:57.195Z,94.60
2017-12-08T13:16:24.696Z,94.80
2017-12-08T13:18:52.238Z,94.60
2017-12-08T13:21:19.712Z,94.80
2017-12-08T13:23:47.204Z,95.00
2017-12-08T13:26:15.486Z,94.60
2017-12-08T13:28:42.942Z,94.60
2017-12-08T13:31:11.240Z,94.60
2017-12-08T13:33:38.694Z,94.60
2017-12-08T13:36:06.939Z,94.70
2017-12-08T13:38:34.459Z,94.70
2017-12-08T13:41:01.917Z,94.10
2017-12-08T13:43:29.431Z,93.80
2017-12-08T13:45:56.930Z,93.80
2017-12-08T13:48:24.486Z,93.70
2017-12-08T13:50:52.779Z,93.60
2017-12-08T13:53:21.274Z,93.60
2017-12-08T13:55:48.713Z,93.60
2017-12-08T13:58:16.962Z,93.40
2017-12-08T14:00:44.508Z,93.40
2017-12-08T14:03:11.999Z,93.00
2017-12-08T14:05:39.450Z,92.90
2017-12-08T14:08:07.186Z,92.80
2017-12-08T14:10:34.579Z,93.10
2017-12-08T14:13:02.196Z,93.10
2017-12-08T14:15:29.638Z,93.20
2017-12-08T14:17:57.172Z,93.60
2017-12-08T14:20:24.679Z,93.40
2017-12-08T14:22:52.167Z,93.60
2017-12-08T14:25:20.379Z,93.20
2017-12-08T14:27:47.922Z,93.50
2017-12-08T14:30:15.433Z,93.70
2017-12-08T14:32:42.867Z,93.50
2017-12-08T14:35:10.394Z,93.30
2017-12-08T14:37:38.137Z,93.60
2017-12-08T14:40:05.639Z,93.30
2017-12-08T14:42:33.117Z,92.90
2017-12-08T14:45:00.545Z,93.40
2017-12-08T14:47:28.071Z,93.50
2017-12-08T14:49:55.521Z,93.60
2017-12-08T14:52:23.011Z,93.60
2017-12-08T14:54:50.527Z,93.70
2017-12-08T14:57:17.991Z,93.80
2017-12-08T14:59:45.463Z,93.90
2017-12-08T15:02:12.926Z,94.10
2017-12-08T15:04:40.378Z,93.70
2017-12-08T15:07:07.831Z,94.00
2017-12-08T15:09:35.338Z,93.90
2017-12-08T15:12:02.781Z,93.80
2017-12-08T15:14:30.318Z,93.50
2017-12-08T15:16:57.866Z,93.50
2017-12-08T15:19:25.353Z,93.80
2017-12-08T15:21:52.831Z,93.70
2017-12-08T15:24:20.312Z,94.00
2017-12-08T15:26:48.574Z,93.50
2017-12-08T15:29:16.033Z,93.50
2017-12-08T15:31:43.581Z,93.50
2017-12-08T15:34:11.021Z,94.00
2017-12-08T15:36:38.544Z,93.50
2017-12-08T15:39:06.787Z,94.30
2017-12-08T15:41:34.293Z,94.00
2017-12-08T15:44:02.600Z,94.00
2017-12-08T15:46:30.808Z,94.80
2017-12-08T15:48:58.306Z,94.50
2017-12-08T15:51:26.582Z,93.60
2017-12-08T15:53:54.046Z,93.60
2017-12-08T15:56:22.284Z,94.00
2017-12-08T15:58:49.758Z,93.70
2017-12-08T16:01:17.298Z,94.00
2017-12-08T16:03:45.508Z,93.80
2017-12-08T16:06:13.007Z,93.80
2017-12-08T16:08:41.220Z,94.10
2017-12-08T16:11:08.714Z,94.10
2017-12-08T16:13:36.216Z,94.00
2017-12-08T16:16:03.625Z,93.80
2017-12-08T16:18:32.051Z,94.30
2017-12-08T16:20:59.486Z,94.20
2017-12-08T16:23:26.925Z,94.10
2017-12-08T16:25:55.168Z,94.00
2017-12-08T16:28:23.395Z,94.20
2017-12-08T16:30:50.885Z,94.20
2017-12-08T16:33:18.466Z,94.20
2017-12-08T16:35:46.027Z,94.30
2017-12-08T16:38:14.388Z,94.80
2017-12-08T16:40:41.911Z,94.60
2017-12-08T16:43:09.363Z,94.40
2017-12-08T16:45:36.989Z,94.30
2017-12-08T16:48:05.152Z,94.50
2017-12-08T16:50:32.885Z,94.50
2017-12-08T16:53:01.092Z,94.60
2017-12-08T16:55:28.587Z,94.20
2017-12-08T16:57:56.083Z,94.00
2017-12-08T17:00:23.645Z,94.50
2017-12-08T17:02:51.116Z,94.00
2017-12-08T17:05:18.600Z,94.50
2017-12-08T17:07:46.098Z,94.30
2017-12-08T17:10:13.517Z,94.80
2017-12-08T17:12:41.008Z,94.20
2017-12-08T17:15:08.498Z,94.40
2017-12-08T17:17:36.762Z,94.70
2017-12-08T17:20:04.229Z,94.60
2017-12-08T17:22:32.509Z,95.10
2017-12-08T17:25:00.746Z,94.80
2017-12-08T17:27:28.216Z,94.80
2017-12-08T17:29:55.927Z,94.80
2017-12-08T17:32:23.404Z,94.40
2017-12-08T17:34:50.864Z,94.60
2017-12-08T17:37:19.134Z,94.40
2017-12-08T17:39:46.548Z,94.70
2017-12-08T17:42:14.042Z,94.60
2017-12-08T17:44:41.578Z,94.40
2017-12-08T17:47:09.148Z,94.40
2017-12-08T17:49:37.349Z,94.10
2017-12-08T17:52:04.760Z,94.00
2017-12-08T17:54:32.245Z,93.90
2017-12-08T17:56:59.790Z,94.00
2017-12-08T17:59:27.254Z,93.80
2017-12-08T18:01:54.691Z,93.70
2017-12-08T18:04:23.407Z,93.60
2017-12-08T18:06:50.891Z,93.60
2017-12-08T18:09:18.408Z,93.50
2017-12-08T18:11:45.901Z,93.50
2017-12-08T18:14:13.359Z,93.30
2017-12-08T18:16:40.876Z,93.20
2017-12-08T18:19:09.112Z,93.00
2017-12-08T18:21:36.628Z,92.70
2017-12-08T18:24:04.891Z,92.60
2017-12-08T18:26:32.362Z,92.60
2017-12-08T18:29:00.628Z,92.50
2017-12-08T18:31:28.052Z,92.40
2017-12-08T18:33:55.563Z,92.40
2017-12-08T18:36:23.005Z,92.20
2017-12-08T18:38:50.501Z,92.10
2017-12-08T18:41:18.019Z,91.70
2017-12-08T18:43:45.456Z,91.60
2017-12-08T18:46:13.678Z,91.50
2017-12-08T18:48:41.174Z,91.40
2017-12-08T18:51:08.631Z,91.20
2017-12-08T18:53:36.893Z,91.20
2017-12-08T18:56:04.358Z,91.20
2017-12-08T18:58:33.326Z,91.20
2017-12-08T19:01:00.792Z,91.20
2017-12-08T19:03:28.298Z,91.20
2017-12-08T19:05:56.551Z,90.60
2017-12-08T19:08:24.124Z,90.90
2017-12-08T19:10:51.626Z,90.90
2017-12-08T19:13:19.124Z,90.90
2017-12-08T19:15:46.552Z,90.70
2017-12-08T19:18:14.023Z,90.80
2017-12-08T19:20:41.525Z,90.90
2017-12-08T19:23:09.044Z,90.80
2017-12-08T19:25:36.518Z,90.60
2017-12-08T19:28:03.976Z,90.40
2017-12-08T19:30:31.506Z,90.30
2017-12-08T19:32:59.789Z,90.30
2017-12-08T19:35:28.055Z,90.30
2017-12-08T19:37:55.498Z,90.30
2017-12-08T19:40:22.941Z,90.20
2017-12-08T19:42:50.426Z,89.80
2017-12-08T19:45:17.888Z,89.50
2017-12-08T19:47:46.884Z,90.00
2017-12-08T19:50:14.404Z,90.30
2017-12-08T19:52:41.866Z,90.70
2017-12-08T19:55:09.312Z,91.20
2017-12-08T19:57:36.795Z,91.70
2017-12-08T20:00:04.266Z,92.30
2017-12-08T20:02:31.750Z,93.00
2017-12-08T20:04:59.189Z,93.10
2017-12-08T20:07:26.690Z,93.60
2017-12-08T20:09:54.167Z,94.20
2017-12-08T20:12:21.699Z,94.00
2017-12-08T20:14:49.161Z,94.70
2017-12-08T20:17:16.656Z,94.90
2017-12-08T20:19:44.912Z,95.90
2017-12-08T20:22:12.370Z,95.90
2017-12-08T20:24:39.816Z,95.90
2017-12-08T20:27:07.335Z,96.20
2017-12-08T20:29:35.608Z,96.50
2017-12-08T20:32:03.905Z,96.70
2017-12-08T20:34:32.124Z,96.50
2017-12-08T20:36:59.660Z,96.50
2017-12-08T20:39:27.179Z,96.40
2017-12-08T20:41:54.645Z,96.30
2017-12-08T20:44:22.161Z,96.20
2017-12-08T20:46:49.677Z,96.50
2017-12-08T20:49:17.892Z,96.90
2017-12-08T20:51:45.380Z,97.00
2017-12-08T20:54:12.880Z,96.70
2017-12-08T20:56:40.367Z,97.00
2017-12-08T20:59:08.684Z,96.90
2017-12-08T21:01:36.234Z,96.90
2017-12-08T21:04:03.711Z,96.80
2017-12-08T21:06:31.146Z,96.90
2017-12-08T21:08:58.654Z,97.00
2017-12-08T21:11:26.126Z,97.20
2017-12-08T21:13:53.621Z,97.20
2017-12-08T21:16:21.074Z,97.30
2017-12-08T21:18:48.614Z,97.50
2017-12-08T21:21:16.059Z,97.00
2017-12-08T21:23:43.622Z,97.20
2017-12-08T21:26:11.082Z,97.10
2017-12-08T21:28:38.559Z,97.30
2017-12-08T21:31:06.054Z,96.90
2017-12-08T21:33:34.318Z,97.10
2017-12-08T21:36:01.847Z,97.00
2017-12-08T21:38:29.347Z,97.20
2017-12-08T21:40:57.882Z,96.90
2017-12-08T21:43:25.345Z,96.90
2017-12-08T21:45:52.840Z,96.80
2017-12-08T21:48:20.370Z,96.90
2017-12-08T21:50:47.933Z,96.60
2017-12-08T21:53:15.448Z,96.80
2017-12-08T21:55:42.880Z,96.50
2017-12-08T21:58:10.621Z,96.50
2017-12-08T22:00:38.895Z,96.30
2017-12-08T22:03:07.841Z,96.40
2017-12-08T22:05:35.346Z,96.30
2017-12-08T22:08:02.757Z,96.10
2017-12-08T22:10:30.260Z,96.30
2017-12-08T22:12:58.491Z,95.80
2017-12-08T22:15:25.999Z,95.80
2017-12-08T22:17:53.498Z,95.90
2017-12-08T22:20:20.989Z,96.10
2017-12-08T22:22:48.476Z,95.80
2017-12-08T22:25:15.949Z,96.00
2017-12-08T22:27:43.451Z,95.90
2017-12-08T22:30:10.949Z,95.80
2017-12-08T22:32:38.506Z,96.50
2017-12-08T22:35:05.992Z,96.10
2017-12-08T22:37:34.962Z,95.50
2017-12-08T22:40:02.460Z,95.50
2017-12-08T22:42:29.960Z,95.40
2017-12-08T22:44:57.444Z,95.90
2017-12-08T22:47:24.914Z,95.70
2017-12-08T22:49:52.449Z,95.80
2017-12-08T22:52:20.726Z,95.90
2017-12-08T22:54:48.368Z,95.80
2017-12-08T22:57:15.909Z,95.90
2017-12-08T22:59:43.439Z,95.70
2017-12-08T23:02:10.982Z,95.90
2017-12-08T23:04:38.387Z,96.10
2017-12-08T23:07:05.871Z,95.60
2017-12-08T23:09:33.370Z,95.70
2017-12-08T23:12:00.863Z,95.80
2017-12-08T23:14:28.348Z,95.90
2017-12-08T23:16:55.848Z,96.20
2017-12-08T23:19:24.135Z,95.60
2017-12-08T23:21:55.098Z,95.60
2017-12-08T23:24:22.408Z,95.50
2017-12-08T23:26:49.999Z,95.80
2017-12-08T23:29:17.722Z,96.30
2017-12-08T23:31:46.471Z,96.20
2017-12-08T23:34:13.997Z,95.80
2017-12-08T23:36:41.714Z,95.90
2017-12-08T23:39:08.960Z,96.10
2017-12-08T23:41:36.616Z,96.20
2017-12-08T23:44:04.827Z,96.00
2017-12-08T23:46:32.300Z,96.00
2017-12-08T23:48:59.809Z,95.70
2017-12-08T23:51:28.046Z,95.60
2017-12-08T23:53:55.536Z,95.60
2017-12-08T23:56:22.995Z,95.50
2017-12-08T23:58:51.293Z,95.50
